Time;durP1;ratioP1;P1;durP2;ratioP2;P2;SDS_P1;SDS_P2;PMS_P1;PMS_P2;Temp;Humidity;BMP_temperature;BMP_pressure;BME280_temperature;BME280_humidity;BME280_pressure;Samples;Min_cycle;Max_cycle;Signal;HPM_P1;HPM_P2
2023/01/02 00:00:54;;;;;;;10.38;1.90;;;;;;;;;;5033105;28;20056;-66
2023/01/02 00:03:20;;;;;;;6.50;1.58;;;;;;;;;;5033082;28;20496;-66
2023/01/02 00:05:46;;;;;;;9.55;2.10;;;;;;;;;;5032271;28;20048;-66
2023/01/02 00:08:12;;;;;;;6.05;1.83;;;;;;;;;;5033198;28;20100;-66
2023/01/02 00:10:38;;;;;;;5.75;1.75;;;;;;;;;;5032703;28;20112;-66
2023/01/02 00:13:04;;;;;;;3.75;1.42;;;;;;;;;;5032842;28;20025;-66
2023/01/02 00:15:31;;;;;;;10.68;1.63;;;;;;;;;;5033094;28;20026;-66
2023/01/02 00:17:57;;;;;;;11.20;2.22;;;;;;;;;;5032726;28;20421;-66
2023/01/02 00:20:23;;;;;;;10.05;1.95;;;;;;;;;;5032689;28;20053;-66
2023/01/02 00:22:50;;;;;;;7.60;1.83;;;;;;;;;;5032649;28;20018;-66
2023/01/02 00:25:16;;;;;;;5.38;1.92;;;;;;;;;;5033126;28;20033;-66
2023/01/02 00:27:42;;;;;;;4.30;1.17;;;;;;;;;;5032697;28;20075;-66
2023/01/02 00:30:08;;;;;;;5.35;1.25;;;;;;;;;;5032855;28;20091;-66
2023/01/02 00:32:34;;;;;;;7.45;1.50;;;;;;;;;;5032669;28;20093;-66
2023/01/02 00:35:01;;;;;;;7.95;1.60;;;;;;;;;;5032326;28;20049;-66
2023/01/02 00:37:27;;;;;;;8.18;1.50;;;;;;;;;;5032838;28;20401;-66
2023/01/02 00:39:53;;;;;;;7.10;1.40;;;;;;;;;;5032590;28;20034;-66
2023/01/02 00:42:19;;;;;;;6.65;2.17;;;;;;;;;;5031427;28;20437;-66
2023/01/02 00:44:45;;;;;;;6.50;1.63;;;;;;;;;;5032450;28;20128;-66
2023/01/02 00:47:11;;;;;;;7.47;1.58;;;;;;;;;;5031407;28;20432;-66
2023/01/02 00:49:37;;;;;;;5.53;1.15;;;;;;;;;;5032317;28;20036;-64
2023/01/02 00:52:03;;;;;;;16.25;4.72;;;;;;;;;;5032492;28;20475;-63
2023/01/02 00:54:29;;;;;;;6.03;1.50;;;;;;;;;;5032515;28;20033;-63
2023/01/02 00:56:55;;;;;;;4.07;1.10;;;;;;;;;;5032460;28;20040;-64
2023/01/02 00:59:21;;;;;;;9.07;1.80;;;;;;;;;;5032534;28;20025;-64
2023/01/02 01:01:48;;;;;;;8.82;2.08;;;;;;;;;;5032205;28;20076;-63
2023/01/02 01:04:14;;;;;;;5.88;1.88;;;;;;;;;;5032383;28;20040;-64
2023/01/02 01:06:40;;;;;;;5.32;1.95;;;;;;;;;;5032257;28;20026;-63
2023/01/02 01:09:06;;;;;;;5.78;1.30;;;;;;;;;;5032412;28;20108;-63
2023/01/02 01:11:32;;;;;;;6.93;1.52;;;;;;;;;;5029350;28;20038;-64
2023/01/02 01:13:58;;;;;;;6.28;1.48;;;;;;;;;;5031645;28;20037;-63
2023/01/02 01:16:25;;;;;;;6.20;1.40;;;;;;;;;;5032002;28;20029;-63
2023/01/02 01:18:54;;;;;;;6.78;1.42;;;;;;;;;;5034065;28;20132;-63
2023/01/02 01:21:21;;;;;;;4.38;1.30;;;;;;;;;;5035869;28;20025;-64
2023/01/02 01:23:50;;;;;;;7.72;1.10;;;;;;;;;;5035524;28;20462;-63
2023/01/02 01:26:17;;;;;;;6.63;1.30;;;;;;;;;;5035768;28;20108;-63
2023/01/02 01:28:43;;;;;;;5.78;1.40;;;;;;;;;;5035690;28;20028;-64
2023/01/02 01:31:11;;;;;;;8.15;2.13;;;;;;;;;;5035762;28;20057;-63
2023/01/02 01:33:37;;;;;;;8.45;1.10;;;;;;;;;;5035728;28;20052;-64
2023/01/02 01:36:04;;;;;;;5.88;1.27;;;;;;;;;;5035892;28;20033;-63
2023/01/02 01:38:31;;;;;;;3.47;1.13;;;;;;;;;;5036039;28;20124;-63
2023/01/02 01:40:57;;;;;;;5.63;1.17;;;;;;;;;;5035692;28;20036;-64
2023/01/02 01:43:39;;;;;;;4.28;1.10;;;;;;;;;;5035760;28;20040;-63
2023/01/02 01:46:26;;;;;;;4.00;1.02;;;;;;;;;;5035166;28;20034;-64
2023/01/02 01:48:56;;;;;;;4.63;1.08;;;;;;;;;;5035601;28;20033;-63
2023/01/02 01:51:22;;;;;;;7.72;1.20;;;;;;;;;;5035829;28;20061;-63
2023/01/02 01:53:51;;;;;;;6.60;1.15;;;;;;;;;;5035464;28;20025;-63
2023/01/02 01:56:17;;;;;;;8.85;1.45;;;;;;;;;;5035539;28;20036;-64
2023/01/02 01:58:44;;;;;;;8.23;1.13;;;;;;;;;;5035437;28;20040;-64
2023/01/02 02:01:11;;;;;;;6.63;1.40;;;;;;;;;;5034993;28;20510;-64
2023/01/02 02:03:38;;;;;;;3.65;0.88;;;;;;;;;;5035448;28;20159;-63
2023/01/02 02:06:05;;;;;;;4.53;1.00;;;;;;;;;;5035165;28;20022;-64
2023/01/02 02:08:35;;;;;;;3.85;0.77;;;;;;;;;;5035211;28;20030;-63
2023/01/02 02:11:01;;;;;;;4.80;0.93;;;;;;;;;;5034921;28;20037;-64
2023/01/02 02:13:29;;;;;;;3.65;0.63;;;;;;;;;;5035465;28;20033;-64
2023/01/02 02:16:07;;;;;;;4.95;1.40;;;;;;;;;;5034837;28;20033;-63
2023/01/02 02:18:34;;;;;;;4.72;1.13;;;;;;;;;;5035165;28;20035;-63
2023/01/02 02:21:18;;;;;;;9.90;3.20;;;;;;;;;;5034982;28;20485;-64
2023/01/02 02:23:56;;;;;;;4.55;0.88;;;;;;;;;;5034818;28;20049;-63
2023/01/02 02:26:30;;;;;;;2.85;0.95;;;;;;;;;;5033753;28;20481;-64
2023/01/02 02:29:15;;;;;;;5.10;0.93;;;;;;;;;;5034390;28;20037;-63
2023/01/02 02:32:01;;;;;;;3.60;0.77;;;;;;;;;;5034937;28;20030;-63
2023/01/02 02:34:37;;;;;;;7.32;3.38;;;;;;;;;;5032545;28;20104;-64
2023/01/02 02:37:22;;;;;;;3.85;0.80;;;;;;;;;;5032353;28;20553;-64
2023/01/02 02:40:00;;;;;;;3.88;1.08;;;;;;;;;;5032389;28;20505;-64
2023/01/02 02:42:44;;;;;;;4.07;0.90;;;;;;;;;;5032674;28;20486;-64
2023/01/02 02:45:29;;;;;;;1.42;0.70;;;;;;;;;;5032014;28;20091;-63
2023/01/02 02:48:00;;;;;;;4.20;0.80;;;;;;;;;;5032240;28;20650;-63
2023/01/02 02:50:31;;;;;;;5.37;0.80;;;;;;;;;;5032453;28;20044;-63
2023/01/02 02:53:12;;;;;;;2.45;0.93;;;;;;;;;;5032235;28;20128;-63
2023/01/02 02:55:42;;;;;;;1.25;0.77;;;;;;;;;;5032244;28;20132;-63
2023/01/02 02:58:08;;;;;;;3.25;1.00;;;;;;;;;;5031896;28;20378;-63
2023/01/02 03:00:34;;;;;;;1.88;0.70;;;;;;;;;;5032313;28;20034;-63
2023/01/02 03:03:00;;;;;;;4.32;0.70;;;;;;;;;;5031964;28;20160;-63
2023/01/02 03:05:38;;;;;;;5.43;0.75;;;;;;;;;;5031987;28;20038;-63
2023/01/02 03:08:09;;;;;;;5.13;1.42;;;;;;;;;;5031806;28;20036;-63
2023/01/02 03:10:46;;;;;;;1.75;0.68;;;;;;;;;;5032014;28;20107;-63
2023/01/02 03:13:27;;;;;;;3.63;0.80;;;;;;;;;;5032378;28;20461;-63
2023/01/02 03:15:54;;;;;;;3.97;0.90;;;;;;;;;;5033476;28;20021;-63
2023/01/02 03:18:20;;;;;;;3.30;0.73;;;;;;;;;;5033273;28;20079;-63
2023/01/02 03:20:49;;;;;;;3.35;0.65;;;;;;;;;;5033881;28;20018;-63
2023/01/02 03:23:23;;;;;;;1.63;0.70;;;;;;;;;;5033378;28;20128;-63
2023/01/02 03:25:50;;;;;;;1.45;0.65;;;;;;;;;;5033587;28;20091;-63
2023/01/02 03:28:18;;;;;;;3.65;0.90;;;;;;;;;;5032918;28;20022;-63
2023/01/02 03:30:45;;;;;;;8.85;0.98;;;;;;;;;;5033368;28;20053;-63
2023/01/02 03:33:14;;;;;;;3.55;0.82;;;;;;;;;;5033320;28;20025;-63
2023/01/02 03:35:42;;;;;;;1.95;0.70;;;;;;;;;;5033450;28;20029;-63
2023/01/02 03:38:09;;;;;;;4.30;1.00;;;;;;;;;;5033027;28;20041;-63
2023/01/02 03:40:38;;;;;;;7.50;1.10;;;;;;;;;;5032718;28;20057;-63
2023/01/02 03:43:16;;;;;;;5.05;1.20;;;;;;;;;;5032790;28;20017;-63
2023/01/02 03:45:48;;;;;;;2.72;1.20;;;;;;;;;;5033531;28;20021;-63
2023/01/02 03:48:43;;;;;;;4.82;1.92;;;;;;;;;;5032869;28;20040;-63
2023/01/02 03:51:09;;;;;;;6.07;1.08;;;;;;;;;;5032633;28;20040;-63
2023/01/02 03:53:37;;;;;;;10.43;1.10;;;;;;;;;;5033297;28;20029;-63
2023/01/02 03:56:15;;;;;;;2.40;0.77;;;;;;;;;;5032579;28;20033;-64
2023/01/02 03:58:44;;;;;;;2.95;1.00;;;;;;;;;;5033245;28;20462;-63
2023/01/02 04:01:32;;;;;;;4.70;0.88;;;;;;;;;;5032835;28;20021;-64
2023/01/02 04:04:04;;;;;;;9.48;1.10;;;;;;;;;;5033024;28;20101;-63
2023/01/02 04:06:33;;;;;;;3.28;0.77;;;;;;;;;;5032463;28;20040;-63
2023/01/02 04:09:04;;;;;;;9.00;1.17;;;;;;;;;;5033192;28;20033;-63
2023/01/02 04:11:31;;;;;;;12.68;1.20;;;;;;;;;;5032611;28;20084;-63
2023/01/02 04:13:59;;;;;;;7.70;2.53;;;;;;;;;;5033063;28;20029;-63
2023/01/02 04:16:28;;;;;;;5.63;0.88;;;;;;;;;;5032720;28;20017;-63
2023/01/02 04:18:57;;;;;;;10.38;1.40;;;;;;;;;;5033135;28;20087;-63
2023/01/02 04:21:25;;;;;;;7.22;1.50;;;;;;;;;;5032828;28;20466;-63
2023/01/02 04:23:58;;;;;;;7.65;1.10;;;;;;;;;;5032859;28;20037;-63
2023/01/02 04:26:27;;;;;;;7.32;1.40;;;;;;;;;;5032548;28;20401;-64
2023/01/02 04:28:53;;;;;;;9.68;1.13;;;;;;;;;;5033027;28;20022;-63
2023/01/02 04:31:26;;;;;;;13.57;1.42;;;;;;;;;;5032622;28;20021;-63
2023/01/02 04:33:54;;;;;;;10.98;1.38;;;;;;;;;;5032615;28;20056;-63
2023/01/02 04:36:21;;;;;;;8.73;1.48;;;;;;;;;;5032633;28;20025;-63
2023/01/02 04:38:47;;;;;;;7.00;1.27;;;;;;;;;;5032848;28;20106;-63
2023/01/02 04:41:27;;;;;;;8.90;1.30;;;;;;;;;;5032099;28;20064;-64
2023/01/02 04:43:54;;;;;;;6.75;1.13;;;;;;;;;;5032579;28;20171;-63
2023/01/02 04:46:20;;;;;;;11.25;1.63;;;;;;;;;;5032513;28;20489;-64
2023/01/02 04:48:46;;;;;;;5.15;1.58;;;;;;;;;;5032918;28;20021;-63
2023/01/02 04:51:12;;;;;;;9.98;1.35;;;;;;;;;;5032455;28;20029;-63
2023/01/02 04:53:38;;;;;;;8.40;1.20;;;;;;;;;;5036348;28;20038;-63
2023/01/02 04:56:05;;;;;;;7.15;1.23;;;;;;;;;;5036447;28;20536;-63
2023/01/02 04:58:31;;;;;;;13.93;1.73;;;;;;;;;;5036607;28;20072;-63
2023/01/02 05:00:57;;;;;;;7.95;1.10;;;;;;;;;;5036660;28;20374;-63
2023/01/02 05:03:23;;;;;;;8.40;1.35;;;;;;;;;;5036381;28;20033;-63
2023/01/02 05:05:49;;;;;;;5.20;1.20;;;;;;;;;;5036179;28;20469;-63
2023/01/02 05:08:15;;;;;;;4.03;1.08;;;;;;;;;;5036199;28;20026;-63
2023/01/02 05:10:42;;;;;;;7.05;1.48;;;;;;;;;;5035687;28;20037;-64
2023/01/02 05:13:08;;;;;;;9.95;1.58;;;;;;;;;;5032761;28;20044;-63
2023/01/02 05:15:34;;;;;;;6.05;1.40;;;;;;;;;;5036273;28;20129;-63
2023/01/02 05:18:00;;;;;;;7.35;1.67;;;;;;;;;;5036025;28;20021;-63
2023/01/02 05:20:26;;;;;;;5.82;1.60;;;;;;;;;;5035629;28;20026;-63
2023/01/02 05:25:37;;;;;;;5.40;1.40;;;;;;;;;;5035553;28;20045;-63
2023/01/02 05:28:04;;;;;;;9.55;1.38;;;;;;;;;;5036196;28;20029;-63
2023/01/02 05:30:30;;;;;;;8.30;1.92;;;;;;;;;;5035535;28;20022;-63
2023/01/02 05:32:56;;;;;;;5.30;0.85;;;;;;;;;;5035986;28;20037;-63
2023/01/02 05:35:22;;;;;;;5.03;1.45;;;;;;;;;;5035626;28;20053;-63
2023/01/02 05:37:48;;;;;;;11.73;2.47;;;;;;;;;;5035723;28;20045;-63
2023/01/02 05:40:14;;;;;;;6.05;1.10;;;;;;;;;;5035881;28;20049;-63
2023/01/02 05:42:40;;;;;;;3.30;1.00;;;;;;;;;;5035712;28;20018;-63
2023/01/02 05:45:08;;;;;;;3.35;1.15;;;;;;;;;;5035762;28;20517;-63
2023/01/02 05:47:34;;;;;;;6.55;1.20;;;;;;;;;;5035595;28;20029;-63
2023/01/02 05:50:00;;;;;;;4.45;1.00;;;;;;;;;;5035704;28;20525;-63
2023/01/02 05:52:26;;;;;;;3.90;1.10;;;;;;;;;;5035118;28;20029;-63
2023/01/02 05:54:52;;;;;;;2.88;1.10;;;;;;;;;;5035615;28;20041;-63
2023/01/02 05:57:18;;;;;;;8.63;1.00;;;;;;;;;;5035189;28;20454;-63
2023/01/02 05:59:44;;;;;;;5.22;1.42;;;;;;;;;;5035174;28;20432;-63
2023/01/02 06:02:10;;;;;;;4.18;1.10;;;;;;;;;;5035497;28;20104;-63
2023/01/02 06:04:36;;;;;;;6.90;1.15;;;;;;;;;;5034356;28;20448;-64
2023/01/02 06:07:03;;;;;;;9.25;1.73;;;;;;;;;;5034995;28;20080;-63
2023/01/02 06:09:29;;;;;;;4.88;1.10;;;;;;;;;;5035166;28;20030;-63
2023/01/02 06:11:55;;;;;;;5.90;1.85;;;;;;;;;;5034969;28;20026;-63
2023/01/02 06:14:22;;;;;;;5.55;1.45;;;;;;;;;;5034500;28;20029;-63
2023/01/02 06:16:49;;;;;;;6.53;1.17;;;;;;;;;;5052231;28;20036;-63
2023/01/02 06:19:15;;;;;;;3.85;0.80;;;;;;;;;;5054066;28;20080;-63
2023/01/02 06:21:41;;;;;;;4.20;0.93;;;;;;;;;;5054549;28;20413;-63
2023/01/02 06:24:07;;;;;;;6.47;1.10;;;;;;;;;;5054810;28;20086;-63
2023/01/02 06:26:33;;;;;;;2.90;1.02;;;;;;;;;;5054719;28;20025;-63
2023/01/02 06:28:59;;;;;;;6.72;1.40;;;;;;;;;;5054864;28;20096;-63
2023/01/02 06:31:26;;;;;;;3.70;1.05;;;;;;;;;;5054574;28;20025;-63
2023/01/02 06:33:53;;;;;;;5.72;1.60;;;;;;;;;;5043605;28;20053;-63
2023/01/02 06:36:19;;;;;;;3.25;1.30;;;;;;;;;;5034018;28;20494;-63
2023/01/02 06:38:46;;;;;;;3.55;1.20;;;;;;;;;;5034899;28;20522;-63
2023/01/02 06:41:12;;;;;;;7.57;1.60;;;;;;;;;;5034827;28;20330;-63
2023/01/02 06:43:46;;;;;;;7.95;2.72;;;;;;;;;;5033197;28;20394;-63
2023/01/02 06:46:14;;;;;;;6.25;1.60;;;;;;;;;;5034602;28;20115;-63
2023/01/02 06:48:40;;;;;;;7.47;1.52;;;;;;;;;;5034676;28;20398;-63
2023/01/02 06:51:07;;;;;;;8.32;1.90;;;;;;;;;;5034477;28;20024;-63
2023/01/02 06:53:34;;;;;;;5.55;1.90;;;;;;;;;;5033269;28;20424;-63
2023/01/02 06:56:00;;;;;;;5.47;1.75;;;;;;;;;;5034281;28;20037;-63
2023/01/02 06:58:28;;;;;;;5.15;2.00;;;;;;;;;;5034289;28;20053;-63
2023/01/02 07:00:54;;;;;;;5.45;1.60;;;;;;;;;;5034564;28;20033;-63
2023/01/02 07:03:20;;;;;;;5.55;1.85;;;;;;;;;;5031551;28;20025;-63
2023/01/02 07:05:46;;;;;;;7.85;2.83;;;;;;;;;;5033104;28;20136;-63
2023/01/02 07:08:14;;;;;;;5.07;2.30;;;;;;;;;;5033513;28;20040;-63
2023/01/02 07:10:40;;;;;;;8.48;3.10;;;;;;;;;;5033389;28;20108;-63
2023/01/02 07:13:06;;;;;;;7.15;2.00;;;;;;;;;;5030914;28;20022;-63
2023/01/02 07:15:32;;;;;;;6.35;1.90;;;;;;;;;;5029422;28;20045;-63
2023/01/02 07:17:59;;;;;;;9.38;2.40;;;;;;;;;;5033320;28;20707;-63
2023/01/02 07:20:25;;;;;;;7.18;2.28;;;;;;;;;;5032326;28;20061;-63
2023/01/02 07:22:51;;;;;;;6.25;2.08;;;;;;;;;;5020585;28;20508;-64
2023/01/02 07:25:18;;;;;;;3.88;1.60;;;;;;;;;;5032715;28;21371;-63
2023/01/02 07:27:44;;;;;;;4.95;2.00;;;;;;;;;;5032934;28;20013;-63
2023/01/02 07:30:10;;;;;;;6.65;1.60;;;;;;;;;;5032829;28;20076;-63
2023/01/02 07:32:37;;;;;;;7.82;1.90;;;;;;;;;;5032852;28;20021;-64
2023/01/02 07:35:03;;;;;;;6.95;2.05;;;;;;;;;;5032371;28;20410;-64
2023/01/02 07:37:29;;;;;;;5.68;2.15;;;;;;;;;;5031528;28;20044;-64
2023/01/02 07:39:55;;;;;;;5.22;1.60;;;;;;;;;;5033007;28;20044;-64
2023/01/02 07:42:21;;;;;;;4.28;2.03;;;;;;;;;;5032834;28;20080;-64
2023/01/02 07:44:47;;;;;;;6.60;3.25;;;;;;;;;;5032664;28;20478;-64
2023/01/02 07:47:13;;;;;;;2.75;1.60;;;;;;;;;;5032503;28;20029;-63
2023/01/02 07:49:39;;;;;;;6.07;1.90;;;;;;;;;;5032454;28;20390;-63
2023/01/02 07:52:08;;;;;;;2.33;1.63;;;;;;;;;;5032651;28;20025;-63
2023/01/02 07:54:34;;;;;;;5.68;1.70;;;;;;;;;;5030558;28;20477;-63
2023/01/02 07:57:00;;;;;;;15.20;10.90;;;;;;;;;;5028576;28;20017;-63
2023/01/02 07:59:27;;;;;;;10.65;3.22;;;;;;;;;;5027741;28;20100;-63
2023/01/02 08:01:53;;;;;;;6.30;2.13;;;;;;;;;;5031078;28;20040;-63
2023/01/02 08:04:19;;;;;;;5.10;1.75;;;;;;;;;;5031958;28;20029;-63
2023/01/02 08:06:45;;;;;;;4.45;2.08;;;;;;;;;;5032476;28;20063;-63
2023/01/02 08:09:11;;;;;;;5.38;1.63;;;;;;;;;;5032786;28;20053;-63
2023/01/02 08:11:37;;;;;;;5.30;1.90;;;;;;;;;;5030161;28;20032;-63
2023/01/02 08:14:04;;;;;;;2.75;1.70;;;;;;;;;;5025707;28;20030;-63
2023/01/02 08:16:30;;;;;;;3.38;1.77;;;;;;;;;;5026722;28;20026;-63
2023/01/02 08:18:56;;;;;;;5.72;1.88;;;;;;;;;;5031336;28;20092;-63
2023/01/02 08:21:23;;;;;;;6.05;2.22;;;;;;;;;;5026881;28;20076;-63
2023/01/02 08:23:49;;;;;;;7.93;2.00;;;;;;;;;;5031962;28;20029;-62
2023/01/02 08:26:15;;;;;;;4.85;2.05;;;;;;;;;;5031626;28;20115;-63
2023/01/02 08:28:41;;;;;;;3.10;2.13;;;;;;;;;;5031150;28;20017;-63
2023/01/02 08:31:09;;;;;;;8.10;1.88;;;;;;;;;;5028166;28;20502;-63
2023/01/02 08:33:35;;;;;;;7.13;1.88;;;;;;;;;;5027715;28;20044;-63
2023/01/02 08:36:01;;;;;;;5.47;1.98;;;;;;;;;;5031081;28;20035;-63
2023/01/02 08:38:27;;;;;;;8.35;2.00;;;;;;;;;;5032254;28;20040;-63
2023/01/02 08:40:53;;;;;;;7.43;3.72;;;;;;;;;;5032344;28;20385;-63
2023/01/02 08:43:20;;;;;;;3.95;1.88;;;;;;;;;;5030375;28;20033;-63
2023/01/02 08:45:46;;;;;;;4.15;1.90;;;;;;;;;;5027705;28;20068;-62
2023/01/02 08:48:12;;;;;;;3.85;1.80;;;;;;;;;;5031917;28;20017;-63
2023/01/02 08:50:38;;;;;;;6.70;2.10;;;;;;;;;;5029863;28;20075;-63
2023/01/02 08:53:04;;;;;;;3.90;1.83;;;;;;;;;;5030323;28;20079;-63
2023/01/02 08:55:30;;;;;;;7.90;2.65;;;;;;;;;;5024822;28;20029;-63
2023/01/02 08:57:56;;;;;;;4.88;2.55;;;;;;;;;;5021380;28;20044;-63
2023/01/02 09:00:22;;;;;;;5.22;2.22;;;;;;;;;;5019557;28;20045;-63
2023/01/02 09:02:48;;;;;;;5.53;2.40;;;;;;;;;;5024335;28;20462;-63
2023/01/02 09:05:15;;;;;;;5.90;2.28;;;;;;;;;;5021854;28;20063;-63
2023/01/02 09:07:42;;;;;;;5.05;2.45;;;;;;;;;;5018195;28;20030;-63
2023/01/02 09:10:08;;;;;;;4.78;2.45;;;;;;;;;;5018708;28;20085;-63
2023/01/02 09:12:35;;;;;;;6.57;2.13;;;;;;;;;;5013685;28;20026;-63
2023/01/02 09:15:01;;;;;;;9.05;2.78;;;;;;;;;;5024860;28;20100;-63
2023/01/02 09:17:28;;;;;;;5.25;2.42;;;;;;;;;;5019824;28;20099;-63
2023/01/02 09:19:54;;;;;;;4.75;2.95;;;;;;;;;;5017813;28;20113;-63
2023/01/02 09:22:20;;;;;;;3.47;2.20;;;;;;;;;;5030796;28;20044;-63
2023/01/02 09:24:46;;;;;;;5.97;2.38;;;;;;;;;;5030688;28;20036;-63
2023/01/02 09:27:12;;;;;;;5.13;2.42;;;;;;;;;;5026574;28;20025;-63
2023/01/02 09:29:38;;;;;;;4.10;2.20;;;;;;;;;;5021297;28;20466;-63
2023/01/02 09:32:04;;;;;;;5.10;2.10;;;;;;;;;;5020654;28;20017;-63
2023/01/02 09:34:30;;;;;;;4.25;2.10;;;;;;;;;;5030439;28;20464;-63
2023/01/02 09:36:56;;;;;;;6.00;2.88;;;;;;;;;;5014254;28;20092;-63
2023/01/02 09:39:23;;;;;;;7.10;3.92;;;;;;;;;;5016215;28;20561;-63
2023/01/02 09:41:51;;;;;;;5.20;2.63;;;;;;;;;;5029945;28;20029;-63
2023/01/02 09:44:20;;;;;;;7.97;2.80;;;;;;;;;;5030132;28;20029;-63
2023/01/02 09:47:06;;;;;;;6.88;2.25;;;;;;;;;;5023386;28;20553;-63
2023/01/02 09:49:50;;;;;;;9.68;2.38;;;;;;;;;;5033810;28;20029;-63
2023/01/02 09:52:21;;;;;;;7.05;2.15;;;;;;;;;;5034479;28;20022;-63
2023/01/02 09:54:47;;;;;;;9.57;2.58;;;;;;;;;;5034713;28;20114;-63
2023/01/02 09:57:16;;;;;;;10.75;2.55;;;;;;;;;;5029658;28;20022;-63
2023/01/02 09:59:45;;;;;;;6.97;2.45;;;;;;;;;;5026937;28;20077;-63
2023/01/02 10:02:30;;;;;;;6.80;2.55;;;;;;;;;;5022490;28;20033;-63
2023/01/02 10:04:59;;;;;;;7.03;2.25;;;;;;;;;;5020906;28;20112;-63
2023/01/02 10:07:31;;;;;;;8.90;2.40;;;;;;;;;;5031892;28;20029;-63
2023/01/02 10:10:02;;;;;;;4.10;2.20;;;;;;;;;;5026203;28;20070;-63
2023/01/02 10:12:37;;;;;;;6.60;1.70;;;;;;;;;;5018854;28;20040;-63
2023/01/02 10:15:06;;;;;;;6.53;2.05;;;;;;;;;;5022061;28;20029;-63
2023/01/02 10:17:34;;;;;;;6.45;2.13;;;;;;;;;;5024348;28;20079;-63
2023/01/02 10:20:00;;;;;;;2.72;1.40;;;;;;;;;;5034450;28;20048;-63
2023/01/02 10:22:48;;;;;;;6.18;2.72;;;;;;;;;;5034729;28;20067;-63
2023/01/02 10:25:17;;;;;;;6.75;3.05;;;;;;;;;;5034333;28;20017;-63
2023/01/02 10:27:49;;;;;;;8.98;2.63;;;;;;;;;;5034819;28;20037;-63
2023/01/02 10:30:23;;;;;;;9.40;2.35;;;;;;;;;;5034733;28;20033;-63
2023/01/02 10:33:00;;;;;;;9.55;3.17;;;;;;;;;;5034358;28;20030;-63
2023/01/02 10:35:29;;;;;;;7.18;2.20;;;;;;;;;;5032044;28;20045;-63
2023/01/02 10:37:56;;;;;;;5.32;2.15;;;;;;;;;;5034158;28;20179;-63
2023/01/02 10:40:23;;;;;;;7.47;2.20;;;;;;;;;;5032144;28;20470;-63
2023/01/02 10:42:51;;;;;;;7.03;1.90;;;;;;;;;;5033943;28;20029;-63
2023/01/02 10:45:17;;;;;;;6.82;1.90;;;;;;;;;;5034112;28;20034;-64
2023/01/02 10:47:43;;;;;;;7.20;2.08;;;;;;;;;;5033995;28;20029;-64
2023/01/02 10:50:14;;;;;;;6.18;2.55;;;;;;;;;;5033687;28;20464;-63
2023/01/02 10:52:51;;;;;;;10.50;2.13;;;;;;;;;;5034067;28;20499;-63
2023/01/02 10:55:32;;;;;;;3.55;1.52;;;;;;;;;;5034049;28;20049;-64
2023/01/02 10:58:02;;;;;;;6.50;1.85;;;;;;;;;;5033318;28;20044;-63
2023/01/02 11:00:30;;;;;;;6.60;1.27;;;;;;;;;;5033899;28;20029;-63
2023/01/02 11:02:57;;;;;;;7.60;1.55;;;;;;;;;;5033366;28;20027;-64
2023/01/02 11:05:26;;;;;;;7.45;1.10;;;;;;;;;;5033885;28;20457;-63
2023/01/02 11:07:52;;;;;;;6.70;1.40;;;;;;;;;;5033431;28;20178;-63
2023/01/02 11:10:23;;;;;;;11.02;1.20;;;;;;;;;;5032134;28;20021;-64
2023/01/02 11:12:50;;;;;;;5.72;1.10;;;;;;;;;;5026234;28;20041;-64
2023/01/02 11:15:22;;;;;;;5.45;1.30;;;;;;;;;;5026526;28;20056;-64
2023/01/02 11:17:48;;;;;;;7.97;1.50;;;;;;;;;;5030138;28;20034;-63
2023/01/02 11:20:23;;;;;;;10.77;1.10;;;;;;;;;;5028641;28;20049;-64
2023/01/02 11:22:50;;;;;;;3.28;1.42;;;;;;;;;;5016308;28;20034;-63
2023/01/02 11:25:21;;;;;;;3.55;1.23;;;;;;;;;;5020119;28;20036;-63
2023/01/02 11:27:48;;;;;;;5.90;1.02;;;;;;;;;;5016288;28;20122;-63
2023/01/02 11:30:32;;;;;;;8.88;1.90;;;;;;;;;;5031439;28;20037;-63
2023/01/02 11:33:19;;;;;;;5.47;1.13;;;;;;;;;;5022937;28;20038;-63
2023/01/02 11:35:47;;;;;;;2.60;0.82;;;;;;;;;;5025265;28;20033;-64
2023/01/02 11:38:17;;;;;;;5.90;1.55;;;;;;;;;;5024490;28;20434;-64
2023/01/02 11:40:51;;;;;;;4.00;0.98;;;;;;;;;;5028541;28;20037;-64
2023/01/02 11:46:08;;;;;;;3.30;0.80;;;;;;;;;;5031830;28;20401;-64
2023/01/02 11:48:35;;;;;;;3.95;1.75;;;;;;;;;;5024792;28;20086;-64
2023/01/02 11:51:01;;;;;;;5.30;1.00;;;;;;;;;;5032370;28;20410;-64
2023/01/02 11:53:29;;;;;;;5.53;1.10;;;;;;;;;;5024531;28;20057;-64
2023/01/02 11:55:58;;;;;;;4.95;0.90;;;;;;;;;;5031285;28;20049;-64
2023/01/02 11:58:30;;;;;;;3.95;0.80;;;;;;;;;;5028459;28;20052;-64
2023/01/02 12:01:03;;;;;;;7.47;1.02;;;;;;;;;;5026477;28;20420;-64
2023/01/02 12:03:31;;;;;;;4.80;1.23;;;;;;;;;;5017108;28;20026;-64
2023/01/02 12:06:00;;;;;;;3.15;0.73;;;;;;;;;;5028264;28;20502;-64
2023/01/02 12:08:38;;;;;;;5.68;0.90;;;;;;;;;;5023175;28;20033;-64
2023/01/02 12:11:40;;;;;;;8.70;1.05;;;;;;;;;;5026059;28;20025;-64
2023/01/02 12:14:06;;;;;;;3.25;0.75;;;;;;;;;;5028417;28;20045;-64
2023/01/02 12:16:56;;;;;;;1.73;0.98;;;;;;;;;;5027186;28;20041;-64
2023/01/02 12:19:31;;;;;;;5.05;0.93;;;;;;;;;;5017927;28;20044;-64
2023/01/02 12:22:03;;;;;;;4.55;0.80;;;;;;;;;;5029081;28;20076;-64
2023/01/02 12:24:32;;;;;;;2.70;0.80;;;;;;;;;;5024927;28;20033;-64
2023/01/02 12:27:06;;;;;;;6.75;1.20;;;;;;;;;;5026339;28;20033;-63
2023/01/02 12:29:39;;;;;;;8.52;1.10;;;;;;;;;;5024854;28;20030;-64
2023/01/02 12:32:20;;;;;;;5.20;1.05;;;;;;;;;;5028482;28;20091;-63
2023/01/02 12:34:58;;;;;;;6.47;0.90;;;;;;;;;;5026318;28;20049;-64
2023/01/02 12:37:33;;;;;;;3.50;1.00;;;;;;;;;;5027273;28;20032;-63
2023/01/02 12:40:05;;;;;;;4.55;0.80;;;;;;;;;;5028180;28;20489;-63
2023/01/02 12:42:49;;;;;;;4.13;0.80;;;;;;;;;;5028400;28;20080;-63
2023/01/02 12:45:26;;;;;;;6.88;1.10;;;;;;;;;;5028244;28;20284;-63
2023/01/02 12:48:01;;;;;;;4.10;2.15;;;;;;;;;;5027657;28;20033;-64
2023/01/02 12:50:36;;;;;;;9.98;0.85;;;;;;;;;;5031352;28;20026;-64
2023/01/02 12:53:12;;;;;;;11.65;1.30;;;;;;;;;;5027300;28;20032;-63
2023/01/02 12:55:38;;;;;;;4.07;0.90;;;;;;;;;;5030074;28;20029;-63
2023/01/02 12:58:27;;;;;;;5.18;1.23;;;;;;;;;;5024091;28;20041;-63
2023/01/02 13:01:12;;;;;;;4.90;1.10;;;;;;;;;;5024752;28;20493;-63
2023/01/02 13:03:44;;;;;;;7.63;0.93;;;;;;;;;;5020662;28;20505;-63
2023/01/02 13:06:10;;;;;;;6.85;0.98;;;;;;;;;;5030147;28;20412;-63
2023/01/02 13:08:42;;;;;;;6.70;1.00;;;;;;;;;;5029943;28;20025;-64
2023/01/02 13:11:10;;;;;;;11.15;1.13;;;;;;;;;;5023129;28;20026;-64
2023/01/02 13:13:37;;;;;;;5.20;1.05;;;;;;;;;;5023990;28;20061;-63
2023/01/02 13:16:12;;;;;;;6.30;1.95;;;;;;;;;;5025451;28;20489;-63
2023/01/02 13:18:50;;;;;;;8.55;1.25;;;;;;;;;;5033087;28;20021;-64
2023/01/02 13:21:36;;;;;;;8.27;1.10;;;;;;;;;;5026748;28;20027;-63
2023/01/02 13:24:02;;;;;;;6.25;1.50;;;;;;;;;;5027880;28;20090;-63
2023/01/02 13:26:30;;;;;;;6.22;1.60;;;;;;;;;;5027153;28;20072;-64
2023/01/02 13:29:00;;;;;;;7.32;1.65;;;;;;;;;;5022647;28;20045;-64
2023/01/02 13:31:30;;;;;;;8.07;2.13;;;;;;;;;;5026837;28;20782;-64
2023/01/02 13:33:56;;;;;;;6.63;1.75;;;;;;;;;;5026132;28;20045;-64
2023/01/02 13:36:25;;;;;;;5.28;1.30;;;;;;;;;;5028061;28;20118;-64
2023/01/02 13:38:54;;;;;;;6.63;1.77;;;;;;;;;;5019684;28;20038;-64
2023/01/02 13:41:20;;;;;;;7.32;1.48;;;;;;;;;;5022645;28;20033;-64
2023/01/02 13:43:49;;;;;;;5.97;1.45;;;;;;;;;;5023069;28;20037;-64
2023/01/02 13:46:20;;;;;;;9.00;1.73;;;;;;;;;;5027589;28;20486;-64
2023/01/02 13:48:46;;;;;;;11.68;1.92;;;;;;;;;;5035573;28;20033;-64
2023/01/02 13:51:13;;;;;;;7.78;1.85;;;;;;;;;;5020370;28;20022;-64
2023/01/02 13:53:42;;;;;;;7.70;1.98;;;;;;;;;;5025694;28;20099;-64
2023/01/02 13:56:09;;;;;;;10.60;2.22;;;;;;;;;;5030468;28;20100;-63
2023/01/02 13:58:47;;;;;;;13.70;1.73;;;;;;;;;;5031532;28;20135;-64
2023/01/02 14:01:22;;;;;;;7.50;2.40;;;;;;;;;;5029540;28;20026;-64
2023/01/02 14:04:07;;;;;;;5.20;1.20;;;;;;;;;;5025453;28;20033;-64
2023/01/02 14:06:46;;;;;;;7.65;1.95;;;;;;;;;;5026255;28;20064;-64
2023/01/02 14:09:12;;;;;;;3.47;1.35;;;;;;;;;;5036557;28;20094;-64
2023/01/02 14:11:49;;;;;;;7.30;1.30;;;;;;;;;;5032539;28;20389;-64
2023/01/02 14:14:21;;;;;;;5.78;1.25;;;;;;;;;;5028537;28;20029;-64
2023/01/02 14:16:48;;;;;;;4.00;1.40;;;;;;;;;;5028962;28;20033;-64
2023/01/02 14:19:16;;;;;;;6.35;1.33;;;;;;;;;;5029390;28;20060;-64
2023/01/02 14:21:45;;;;;;;2.85;0.60;;;;;;;;;;5030368;28;20044;-64
2023/01/02 14:24:11;;;;;;;2.00;0.50;;;;;;;;;;5024160;28;20033;-64
2023/01/02 14:26:39;;;;;;;1.55;0.40;;;;;;;;;;5019708;28;20030;-64
2023/01/02 14:29:09;;;;;;;1.60;0.60;;;;;;;;;;5024025;28;20045;-64
2023/01/02 14:31:35;;;;;;;1.88;0.63;;;;;;;;;;5021369;28;20028;-64
2023/01/02 14:34:02;;;;;;;1.13;0.55;;;;;;;;;;5023275;28;20498;-64
2023/01/02 14:36:35;;;;;;;1.08;0.60;;;;;;;;;;5027535;28;20109;-64
2023/01/02 14:39:02;;;;;;;2.08;0.75;;;;;;;;;;5023909;28;20029;-64
2023/01/02 14:44:28;;;;;;;1.70;0.38;;;;;;;;;;5030290;28;20481;-64
2023/01/02 14:46:55;;;;;;;2.25;0.65;;;;;;;;;;5027739;28;20036;-64
2023/01/02 14:49:23;;;;;;;1.75;0.60;;;;;;;;;;5020992;28;20018;-64
2023/01/02 14:52:00;;;;;;;2.42;0.63;;;;;;;;;;5023407;28;20025;-64
2023/01/02 14:54:29;;;;;;;2.05;0.80;;;;;;;;;;5019575;28;20037;-64
2023/01/02 14:56:57;;;;;;;1.30;0.40;;;;;;;;;;5023189;28;20033;-64
2023/01/02 14:59:26;;;;;;;1.15;0.50;;;;;;;;;;5016249;28;20045;-64
2023/01/02 15:01:56;;;;;;;2.65;0.55;;;;;;;;;;5016628;28;20057;-64
2023/01/02 15:04:37;;;;;;;0.63;0.50;;;;;;;;;;5018742;28;20137;-64